ADDS METAR Data INFO
IDs: Format: Raw Decoded Include TAF

Data at: 0401 UTC 23 Sep 2017

KLBX 221953Z AUTO 13010KT 10SM SCT036 31/22 A2994 RMK AO2 SLP138 T03110217 $
KLBX 221853Z AUTO 12010KT 10SM SCT034 32/22 A2996 RMK AO2 SLP144 T03220222 $
KLBX 221753Z AUTO 11010KT 10SM FEW035 32/22 A2996 RMK AO2 SLP146 T03170222 10317 20222 58002 $
KLBX 221653Z AUTO 11008KT 10SM FEW032 FEW040 31/23 A2997 RMK AO2 SLP149 T03110228 $
KLBX 221553Z AUTO 08008KT 10SM CLR 31/23 A2998 RMK AO2 SLP151 T03060233 $
KLBX 221453Z AUTO 10005KT 10SM CLR 29/24 A2997 RMK AO2 SLP148 T02890239 53013 $
KLBX 221353Z AUTO 12005KT 10SM CLR 27/24 A2995 RMK AO2 SLP143 T02720244
KLBX 221253Z AUTO 00000KT 4SM BR CLR 24/23 A2994 RMK AO2 SLP139 T02390228 $
KLBX 221218Z AUTO 00000KT 3SM BR CLR 23/22 A2994 RMK AO2 T02280217 $
KLBX 221210Z AUTO 03003KT 2SM BR CLR 23/22 A2994 RMK AO2 T02280222 $
KLBX 221200Z AUTO 00000KT 3/4SM BR CLR 23/22 A2994 RMK AO2 T02280217 $
KLBX 221153Z AUTO 00000KT 2SM BR 24/23 A2993 RMK AO2 SLP135 70010 T02390228 50004 $
KLBX 221053Z AUTO A2993 RMK AO2 SLP136 PWINO $
KLBX 220953Z AUTO A2992 RMK AO2 SLP133 PWINO $
KLBX 220853Z AUTO 12004KT 10SM CLR 25/23 A2992 RMK AO2 SLP131 T02500228 58004
KLBX 220753Z AUTO 15006KT 10SM CLR 25/23 A2993 RMK AO2 SLP133 T02500228
KLBX 220653Z AUTO 14004KT 10SM CLR 24/23 A2994 RMK AO2 SLP137 T02440228
KLBX 220553Z AUTO 14004KT 10SM CLR 24/23 A2993 RMK AO2 SLP136 60000 T02440228 10261 20244 403170244 58001
KLBX 220453Z AUTO 12004KT 10SM CLR 26/23 A2995 RMK AO2 SLP140 T02560233 TSNO
KLBX 220353Z AUTO 13003KT 10SM CLR 25/24 A2995 RMK AO2 SLP141 T02500239
KLBX 220253Z AUTO 14004KT 10SM CLR 26/24 A2994 RMK AO2 SLP136 60000 T02560239 53009
KLBX 220231Z AUTO 11004KT 10SM FEW022 SCT032 BKN049 26/24 A2994 RMK AO2 T02560239
KLBX 220206Z AUTO 10003KT 9SM BKN022 BKN030 BKN048 26/24 A2993 RMK AO2 T02560239
KLBX 220153Z AUTO 00000KT 7SM SCT022 SCT031 SCT037 25/24 A2993 RMK AO2 SLP133 T02500239
KLBX 220053Z AUTO 08007KT 9SM FEW100 25/23 A2992 RMK AO2 RAE13 SLP130 P0000 T02500233
KLBX 220002Z AUTO 02005KT 10SM -RA SCT023 BKN039 OVC049 25/23 A2991 RMK AO2 P0000 T02500233
KLBX 212353Z AUTO 02003KT 9SM -RA BKN021 BKN035 OVC041 25/23 A2991 RMK AO2 RAE23B42 SLP127 P0000 60008 T02500233 10283 20250 56014
KLBX 212311Z AUTO 03006KT 7SM -RA BKN020 BKN032 OVC090 26/24 A2992 RMK AO2 P0000 T02560239
KLBX 212253Z AUTO 02005KT 6SM -RA BR FEW027 BKN095 BKN120 27/24 A2993 RMK AO2 SLP134 P0004 T02670244
KLBX 212153Z AUTO 00000KT 5SM -RA BR FEW060 FEW095 BKN110 25/24 A2993 RMK AO2 LTG DSNT SW AND W RAB2059 TSE25 SLP133 P0004 T02500239
KLBX 212129Z AUTO 06003KT 5SM RA BR FEW016 BKN041 OVC060 26/24 A2993 RMK AO2 LTG DSNT SW RAB2059 TSE25 P0003 T02610239
KLBX 212123Z AUTO 06004KT 6SM -TSRA BR SCT014 BKN026 OVC038 25/23 A2993 RMK AO2 LTG DSNT SW AND W RAB2059 P0001 T02500233
KLBX 212053Z AUTO VRB05KT 10SM TS FEW007 SCT055 BKN085 26/24 A2995 RMK AO2 LTG DSNT SW AND W TSB51 SLP140 60000 T02610239 56007
KLBX 212037Z AUTO 00000KT 10SM VCTS FEW041 SCT065 BKN090 27/24 A2994 RMK AO2 LTG DSNT ALQDS T02720239
KLBX 212028Z AUTO 05004KT 10SM FEW025 SCT045 BKN060 27/24 A2995 RMK AO2 LTG DSNT W-NE T02670239
KLBX 212013Z AUTO 03007KT 10SM VCTS FEW024 BKN049 OVC080 27/24 A2995 RMK AO2 LTG DSNT W-NE T02670239
KLBX 211953Z AUTO 00000KT 10SM FEW050 BKN060 OVC080 28/24 A2995 RMK AO2 LTG DSNT W-NE RAB19E29 TSB21E36 SLP141 P0000 T02780244
KLBX 211942Z AUTO 02003KT 10SM FEW048 SCT060 BKN080 27/24 A2995 RMK AO2 LTG DSNT W-NE RAB19E29 TSB21E36 P0000 T02720239
KLBX 211927Z AUTO VRB03KT 10SM -TSRA FEW027 SCT044 BKN060 27/23 A2996 RMK AO2 LTG DSNT W-NE RAB19 TSB21 P0000 T02720228
KLBX 211917Z AUTO 10006KT 10SM SCT027 SCT047 BKN070 27/23 A2996 RMK AO2 LTG DSNT ALQDS T02720233
KLBX 211853Z AUTO 07005KT 10SM VCTS FEW026 28/24 A2996 RMK AO2 LTG DSNT W-NE RAE02 TSB04E19 SLP146 P0000 T02780244
KLBX 211825Z AUTO 17006KT 10SM VCTS FEW060 28/24 A2997 RMK AO2 LTG DSNT NW-NE RAE02 TSB04E19 P0000 T02780239
KLBX 211810Z AUTO 19006KT 10SM TS SCT060 SCT080 BKN090 28/24 A2996 RMK AO2 LTG DSNT N AND NE RAE02 TSB04 P0000 T02780239
KLBX 211753Z AUTO 19004KT 9SM VCTS -RA FEW028 BKN070 OVC090 26/24 A2997 RMK AO2 LTG DSNT N AND NE RAB41 SLP147 P0000 60002 T02560239 10317 20256 58000
KLBX 211746Z AUTO 20005KT 6SM VCTS RA BR SCT028 BKN050 OVC090 26/23 A2997 RMK AO2 LTG DSNT N AND NE RAB41 P0000 T02560233
KLBX 211724Z AUTO 23009G19KT 10SM VCTS BKN026 BKN036 29/24 A2997 RMK AO2 LTG DSNT N AND NE T02940239
KLBX 211710Z AUTO 18013KT 10SM VCTS SCT024 SCT029 BKN047 32/25 A2996 RMK AO2 LTG DSNT N AND NE T03170250
KLBX 211653Z AUTO 17014G20KT 10SM SCT024 SCT040 32/24 A2996 RMK AO2 LTG DSNT N SLP146 P0001 T03170244